createdAt,value
2017-11-01T00:01:16.864Z,8.30
2017-11-01T00:03:45.298Z,7.72
2017-11-01T00:06:13.707Z,8.43
2017-11-01T00:08:41.320Z,7.30
2017-11-01T00:11:08.981Z,9.52
2017-11-01T00:13:36.600Z,9.10
2017-11-01T00:16:04.286Z,8.80
2017-11-01T00:18:32.692Z,7.72
2017-11-01T00:21:00.342Z,8.52
2017-11-01T00:23:28.748Z,9.38
2017-11-01T00:25:56.392Z,8.52
2017-11-01T00:28:24.031Z,10.25
2017-11-01T00:30:52.412Z,9.70
2017-11-01T00:33:20.812Z,10.27
2017-11-01T00:35:48.442Z,9.20
2017-11-01T00:38:16.102Z,11.18
2017-11-01T00:40:43.742Z,9.52
2017-11-01T00:43:11.398Z,9.75
2017-11-01T00:45:39.048Z,8.73
2017-11-01T00:48:06.683Z,10.23
2017-11-01T00:50:35.118Z,9.63
2017-11-01T00:53:02.751Z,10.88
2017-11-01T00:55:30.401Z,10.23
2017-11-01T00:57:58.809Z,8.95
2017-11-01T01:00:26.442Z,10.57
2017-11-01T01:02:54.838Z,11.25
2017-11-01T01:05:22.503Z,9.85
2017-11-01T01:07:50.134Z,10.45
2017-11-01T01:10:17.753Z,11.45
2017-11-01T01:12:45.416Z,11.10
2017-11-01T01:15:13.065Z,10.40
2017-11-01T01:17:40.960Z,9.50
2017-11-01T01:20:08.620Z,8.93
2017-11-01T01:22:36.270Z,9.95
2017-11-01T01:25:03.911Z,10.88
2017-11-01T01:27:32.342Z,10.00
2017-11-01T01:29:59.982Z,10.50
2017-11-01T01:32:27.642Z,10.95
2017-11-01T01:34:55.285Z,10.05
2017-11-01T01:37:22.924Z,9.18
2017-11-01T01:39:50.573Z,11.18
2017-11-01T01:42:18.192Z,10.45
2017-11-01T01:44:45.804Z,10.60
2017-11-01T01:47:13.470Z,10.60
2017-11-01T01:49:41.099Z,10.70
2017-11-01T01:52:08.735Z,11.68
2017-11-01T01:54:36.409Z,10.98
2017-11-01T01:57:04.028Z,11.82
2017-11-01T01:59:31.666Z,10.20
2017-11-01T02:01:59.295Z,9.90
2017-11-01T02:04:26.931Z,11.15
2017-11-01T02:06:55.372Z,10.00
2017-11-01T02:09:22.998Z,11.18
2017-11-01T02:11:50.654Z,9.98
2017-11-01T02:14:18.278Z,11.25
2017-11-01T02:16:45.925Z,10.30
2017-11-01T02:19:13.602Z,10.82
2017-11-01T02:21:41.234Z,9.70
2017-11-01T02:24:08.865Z,11.30
2017-11-01T02:26:37.247Z,10.23
2017-11-01T02:29:05.669Z,9.20
2017-11-01T02:31:33.326Z,9.63
2017-11-01T02:34:00.994Z,9.75
2017-11-01T02:36:28.630Z,11.45
2017-11-01T02:38:56.275Z,9.82
2017-11-01T02:41:24.725Z,9.75
2017-11-01T02:43:52.345Z,9.65
2017-11-01T02:46:20.025Z,10.32
2017-11-01T02:48:47.644Z,10.10
2017-11-01T02:51:15.293Z,9.45
2017-11-01T02:53:42.943Z,10.73
2017-11-01T02:56:11.335Z,9.93
2017-11-01T02:58:38.995Z,9.85
2017-11-01T03:01:06.622Z,9.80
2017-11-01T03:03:34.284Z,11.07
2017-11-01T03:06:01.923Z,9.98
2017-11-01T03:08:30.304Z,9.20
2017-11-01T03:10:57.984Z,9.52
2017-11-01T03:13:25.621Z,10.60
2017-11-01T03:15:54.010Z,9.95
2017-11-01T03:18:22.434Z,10.90
2017-11-01T03:20:50.069Z,10.27
2017-11-01T03:23:17.740Z,10.95
2017-11-01T03:25:45.420Z,11.45
2017-11-01T03:28:13.070Z,10.88
2017-11-01T03:30:40.745Z,12.13
2017-11-01T03:33:08.382Z,11.57
2017-11-01T03:35:36.788Z,9.95
2017-11-01T03:38:04.399Z,12.37
2017-11-01T03:40:31.981Z,11.18
2017-11-01T03:43:00.370Z,11.52
2017-11-01T03:45:28.720Z,11.02
2017-11-01T03:47:56.356Z,11.90
2017-11-01T03:50:23.967Z,12.57
2017-11-01T03:52:52.363Z,11.73
2017-11-01T03:55:20.739Z,11.73
2017-11-01T03:57:49.128Z,12.50
2017-11-01T04:00:17.480Z,12.40
2017-11-01T04:02:45.083Z,11.32
2017-11-01T04:05:12.688Z,11.30
2017-11-01T04:07:40.295Z,11.88
2017-11-01T04:10:08.686Z,12.23
2017-11-01T04:12:36.299Z,11.32
2017-11-01T04:15:03.941Z,12.13
2017-11-01T04:17:31.544Z,11.40
2017-11-01T04:19:59.939Z,10.60
2017-11-01T04:22:28.336Z,12.05
2017-11-01T04:24:55.936Z,12.00
2017-11-01T04:27:23.603Z,11.82
2017-11-01T04:29:51.207Z,11.63
2017-11-01T04:32:19.589Z,11.55
2017-11-01T04:34:47.999Z,12.30
2017-11-01T04:37:15.611Z,12.95
2017-11-01T04:39:43.241Z,13.32
2017-11-01T04:42:10.848Z,11.85
2017-11-01T04:44:38.475Z,12.77
2017-11-01T04:47:06.096Z,13.52
2017-11-01T04:49:37.407Z,13.52
2017-11-01T04:52:08.909Z,15.13
2017-11-01T04:54:36.528Z,13.43
2017-11-01T04:57:04.139Z,16.70
2017-11-01T04:59:31.774Z,14.98
2017-11-01T05:02:01.180Z,15.90
2017-11-01T05:04:29.547Z,15.80
2017-11-01T05:06:57.164Z,16.33
2017-11-01T05:09:26.652Z,17.85
2017-11-01T05:11:54.290Z,15.00
2017-11-01T05:14:22.662Z,16.90
2017-11-01T05:16:52.245Z,15.18
2017-11-01T05:19:19.852Z,13.40
2017-11-01T05:21:48.224Z,16.52
2017-11-01T05:24:15.837Z,14.80
2017-11-01T05:26:43.440Z,15.10
2017-11-01T05:29:11.078Z,16.23
2017-11-01T05:31:38.699Z,15.98
2017-11-01T05:34:07.071Z,15.95
2017-11-01T05:36:35.478Z,15.73
2017-11-01T05:39:03.090Z,14.85
2017-11-01T05:41:30.703Z,16.15
2017-11-01T05:43:58.312Z,17.80
2017-11-01T05:46:25.913Z,16.83
2017-11-01T05:48:53.568Z,16.35
2017-11-01T05:51:21.952Z,15.65
2017-11-01T05:53:50.338Z,18.65
2017-11-01T05:56:21.925Z,18.73
2017-11-01T05:58:49.534Z,17.48
2017-11-01T06:01:17.940Z,15.75
2017-11-01T06:03:45.550Z,17.98
2017-11-01T06:06:13.205Z,17.60
2017-11-01T06:08:40.788Z,17.90
2017-11-01T06:11:08.393Z,18.02
2017-11-01T06:13:36.036Z,17.17
2017-11-01T06:16:04.403Z,18.87
2017-11-01T06:18:32.038Z,19.48
2017-11-01T06:20:59.650Z,18.23
2017-11-01T06:23:28.027Z,18.33
2017-11-01T06:25:56.423Z,20.67
2017-11-01T06:28:24.979Z,21.77
2017-11-01T06:30:52.626Z,19.55
2017-11-01T06:33:20.212Z,20.90
2017-11-01T06:35:47.805Z,21.62
2017-11-01T06:38:15.445Z,18.90
2017-11-01T06:40:43.817Z,19.37
2017-11-01T06:43:11.469Z,21.02
2017-11-01T06:45:39.078Z,20.95
2017-11-01T06:48:06.689Z,19.58
2017-11-01T06:50:34.301Z,17.52
2017-11-01T06:53:01.910Z,20.27
2017-11-01T06:55:29.532Z,18.37
2017-11-01T06:57:57.155Z,19.45
2017-11-01T07:00:36.719Z,20.40
2017-11-01T07:03:05.098Z,18.85
2017-11-01T07:05:33.455Z,18.08
2017-11-01T07:08:01.095Z,18.10
2017-11-01T07:10:28.700Z,19.58
2017-11-01T07:12:57.085Z,16.90
2017-11-01T07:15:25.468Z,16.23
2017-11-01T07:17:53.861Z,17.73
2017-11-01T07:20:21.476Z,17.00
2017-11-01T07:22:49.107Z,17.65
2017-11-01T07:25:16.717Z,18.52
2017-11-01T07:27:44.317Z,16.77
2017-11-01T07:30:11.947Z,16.37
2017-11-01T07:32:39.554Z,15.82
2017-11-01T07:35:07.165Z,17.42
2017-11-01T07:37:34.775Z,17.83
2017-11-01T07:40:02.389Z,16.35
2017-11-01T07:42:29.981Z,16.85
2017-11-01T07:44:58.375Z,16.70
2017-11-01T07:47:25.978Z,15.75
2017-11-01T07:49:54.374Z,17.15
2017-11-01T07:52:21.979Z,16.17
2017-11-01T07:54:49.612Z,19.25
2017-11-01T07:57:17.235Z,16.35
2017-11-01T07:59:44.842Z,17.87
2017-11-01T08:02:12.469Z,15.82
2017-11-01T08:04:40.075Z,16.42
2017-11-01T08:07:08.446Z,16.10
2017-11-01T08:09:36.059Z,17.27
2017-11-01T08:12:03.645Z,15.63
2017-11-01T08:14:31.245Z,18.30
2017-11-01T08:17:00.636Z,17.00
2017-11-01T08:19:28.273Z,16.40
2017-11-01T08:21:55.873Z,16.95
2017-11-01T08:24:24.244Z,19.23
2017-11-01T08:26:51.866Z,19.58
2017-11-01T08:29:19.470Z,18.05
2017-11-01T08:31:47.104Z,17.20
2017-11-01T08:34:14.684Z,18.67
2017-11-01T08:36:42.333Z,19.27
2017-11-01T08:39:09.947Z,18.40
2017-11-01T08:41:38.309Z,19.02
2017-11-01T08:44:05.940Z,19.42
2017-11-01T08:46:33.538Z,19.37
2017-11-01T08:49:01.161Z,19.80
2017-11-01T08:51:29.554Z,17.40
2017-11-01T08:53:57.166Z,18.52
2017-11-01T08:56:24.802Z,17.13
2017-11-01T08:58:52.417Z,19.57
2017-11-01T09:01:20.053Z,19.50
2017-11-01T09:03:47.674Z,19.70
2017-11-01T09:06:15.307Z,19.00
2017-11-01T09:08:42.919Z,20.45
2017-11-01T09:11:11.301Z,19.00
2017-11-01T09:13:38.931Z,18.85
2017-11-01T09:16:06.535Z,20.70
2017-11-01T09:18:34.967Z,18.13
2017-11-01T09:21:02.589Z,19.12
2017-11-01T09:23:30.948Z,20.50
2017-11-01T09:25:58.566Z,20.45
2017-11-01T09:28:26.179Z,19.55
2017-11-01T09:30:53.810Z,19.83
2017-11-01T09:33:21.398Z,19.30
2017-11-01T09:35:48.992Z,19.50
2017-11-01T09:38:17.386Z,19.93
2017-11-01T09:40:44.975Z,20.57
2017-11-01T09:43:12.598Z,19.90
2017-11-01T09:45:40.967Z,20.20
2017-11-01T09:48:09.379Z,19.37
2017-11-01T09:50:36.990Z,21.60
2017-11-01T09:53:04.577Z,20.60
2017-11-01T09:55:32.947Z,22.93
2017-11-01T09:58:00.536Z,22.40
2017-11-01T10:00:28.166Z,23.00
2017-11-01T10:02:55.761Z,22.20
2017-11-01T10:05:24.110Z,22.17
2017-11-01T10:07:51.725Z,22.30
2017-11-01T10:10:19.323Z,22.03
2017-11-01T10:12:46.962Z,22.57
2017-11-01T10:15:14.570Z,21.17
2017-11-01T10:17:42.183Z,21.07
2017-11-01T10:20:09.793Z,19.40
2017-11-01T10:22:37.403Z,22.50
2017-11-01T10:25:05.035Z,23.97
2017-11-01T10:27:33.388Z,20.57
2017-11-01T10:30:00.991Z,20.13
2017-11-01T10:32:29.378Z,20.03
2017-11-01T10:34:56.973Z,19.10
2017-11-01T10:37:25.386Z,20.20
2017-11-01T10:39:52.988Z,17.90
2017-11-01T10:42:20.579Z,20.33
2017-11-01T10:44:48.208Z,19.27
2017-11-01T10:47:15.818Z,19.60
2017-11-01T10:49:44.460Z,21.40
2017-11-01T10:52:12.153Z,20.87
2017-11-01T10:54:39.761Z,17.57
2017-11-01T10:57:07.369Z,18.97
2017-11-01T10:59:34.977Z,18.37
2017-11-01T11:02:02.606Z,17.50
2017-11-01T11:04:30.246Z,20.03
2017-11-01T11:06:57.852Z,20.93
2017-11-01T11:09:25.455Z,18.90
2017-11-01T11:11:53.830Z,21.13
2017-11-01T11:14:22.210Z,19.13
2017-11-01T11:16:50.604Z,18.60
2017-11-01T11:19:18.217Z,18.00
2017-11-01T11:21:45.855Z,18.30
2017-11-01T11:24:13.457Z,19.30
2017-11-01T11:26:41.075Z,18.20
2017-11-01T11:29:08.685Z,19.03
2017-11-01T11:31:36.299Z,18.00
2017-11-01T11:34:03.923Z,18.00
2017-11-01T11:36:32.290Z,17.00
2017-11-01T11:38:59.926Z,16.40
2017-11-01T11:41:27.541Z,17.47
2017-11-01T11:43:55.893Z,16.83
2017-11-01T11:46:23.500Z,17.20
2017-11-01T11:48:51.111Z,16.23
2017-11-01T11:51:18.716Z,16.23
2017-11-01T11:53:47.092Z,16.87
2017-11-01T11:56:15.499Z,16.70
2017-11-01T11:58:43.122Z,17.90
2017-11-01T12:01:10.703Z,15.57
2017-11-01T12:03:39.107Z,15.30
2017-11-01T12:06:06.783Z,15.60
2017-11-01T12:08:34.394Z,16.30
2017-11-01T12:11:01.985Z,15.83
2017-11-01T12:13:29.610Z,16.00
2017-11-01T12:15:57.211Z,16.60
2017-11-01T12:18:24.818Z,16.97
2017-11-01T12:20:52.449Z,15.80
2017-11-01T12:23:20.042Z,14.03
2017-11-01T12:25:47.674Z,15.60
2017-11-01T12:28:15.288Z,15.43
2017-11-01T12:30:42.893Z,14.90
2017-11-01T12:33:10.504Z,13.17
2017-11-01T12:35:38.111Z,11.60
2017-11-01T12:38:06.494Z,13.23
2017-11-01T12:40:34.092Z,11.83
2017-11-01T12:43:01.700Z,14.00
2017-11-01T12:45:30.096Z,12.73
2017-11-01T12:47:58.447Z,13.73
2017-11-01T12:50:26.077Z,12.20
2017-11-01T12:52:53.665Z,12.57
2017-11-01T12:55:21.303Z,11.23
2017-11-01T12:57:48.888Z,11.53
2017-11-01T13:00:16.476Z,12.00
2017-11-01T13:02:44.856Z,12.30
2017-11-01T13:05:13.239Z,12.23
2017-11-01T13:07:41.634Z,13.20
2017-11-01T13:10:09.228Z,11.80
2017-11-01T13:12:36.840Z,10.50
2017-11-01T13:15:04.459Z,10.70
2017-11-01T13:17:32.059Z,10.53
2017-11-01T13:19:59.673Z,12.30
2017-11-01T13:22:27.273Z,11.63
2017-11-01T13:24:54.913Z,10.13
2017-11-01T13:27:22.504Z,11.50
2017-11-01T13:29:50.127Z,12.60
2017-11-01T13:32:17.726Z,11.63
2017-11-01T13:34:45.345Z,10.20
2017-11-01T13:37:12.929Z,11.40
2017-11-01T13:39:40.550Z,9.43
2017-11-01T13:42:08.905Z,9.63
2017-11-01T13:44:36.492Z,9.83
2017-11-01T13:47:04.886Z,9.77
2017-11-01T13:49:32.477Z,9.10
2017-11-01T13:52:00.883Z,10.73
2017-11-01T13:54:28.476Z,10.37
2017-11-01T13:56:56.833Z,9.73
2017-11-01T13:59:24.471Z,9.13
2017-11-01T14:01:52.825Z,9.30
2017-11-01T14:04:20.429Z,9.33
2017-11-01T14:06:48.033Z,7.80
2017-11-01T14:09:15.649Z,9.83
2017-11-01T14:11:43.231Z,10.03
2017-11-01T14:14:10.827Z,8.77
2017-11-01T14:16:38.433Z,9.13
2017-11-01T14:19:06.327Z,9.57
2017-11-01T14:21:34.237Z,9.23
2017-11-01T14:24:02.151Z,8.30
2017-11-01T14:26:30.084Z,8.23
2017-11-01T14:28:58.001Z,8.60
2017-11-01T14:31:26.678Z,11.17
2017-11-01T14:33:54.285Z,9.20
2017-11-01T14:36:21.900Z,9.40
2017-11-01T14:38:49.555Z,9.60
2017-11-01T14:41:17.168Z,12.30
2017-11-01T14:43:45.568Z,8.43
2017-11-01T14:46:13.182Z,11.03
2017-11-01T14:48:40.786Z,8.90
2017-11-01T14:51:08.411Z,9.10
2017-11-01T14:53:36.013Z,8.60
2017-11-01T14:56:03.630Z,7.97
2017-11-01T14:58:31.233Z,8.00
2017-11-01T15:00:58.847Z,7.60
2017-11-01T15:03:26.456Z,7.80
2017-11-01T15:05:54.811Z,7.20
2017-11-01T15:08:22.441Z,7.90
2017-11-01T15:10:50.043Z,7.27
2017-11-01T15:13:17.651Z,7.47
2017-11-01T15:15:45.262Z,8.00
2017-11-01T15:18:12.854Z,7.13
2017-11-01T15:20:41.243Z,8.63
2017-11-01T15:23:08.839Z,7.20
2017-11-01T15:25:36.441Z,6.83
2017-11-01T15:28:04.045Z,6.50
2017-11-01T15:30:31.638Z,8.87
2017-11-01T15:32:59.271Z,7.20
2017-11-01T15:35:26.856Z,7.73
2017-11-01T15:37:54.444Z,7.73
2017-11-01T15:40:22.057Z,8.07
2017-11-01T15:42:49.662Z,7.23
2017-11-01T15:45:17.275Z,7.50
2017-11-01T15:47:44.881Z,6.60
2017-11-01T15:50:12.463Z,6.80
2017-11-01T15:52:40.092Z,8.03
2017-11-01T15:55:07.684Z,8.03
2017-11-01T15:57:35.315Z,5.57
2017-11-01T16:00:02.918Z,6.70
2017-11-01T16:02:30.518Z,6.93
2017-11-01T16:04:58.117Z,7.00
2017-11-01T16:07:25.701Z,6.53
2017-11-01T16:09:53.328Z,6.03
2017-11-01T16:12:20.935Z,7.20
2017-11-01T16:14:48.539Z,7.00
2017-11-01T16:17:16.165Z,6.97
2017-11-01T16:19:44.525Z,10.80
2017-11-01T16:22:12.172Z,10.03
2017-11-01T16:24:39.756Z,9.97
2017-11-01T16:27:07.370Z,12.07
2017-11-01T16:29:35.937Z,11.97
2017-11-01T16:32:03.537Z,8.70
2017-11-01T16:34:31.144Z,11.80
2017-11-01T16:36:59.523Z,13.87
2017-11-01T16:39:27.909Z,15.17
2017-11-01T16:41:56.268Z,12.57
2017-11-01T16:44:23.861Z,12.40
2017-11-01T16:46:52.251Z,10.93
2017-11-01T16:49:19.874Z,8.83
2017-11-01T16:51:47.470Z,11.20
2017-11-01T16:54:15.838Z,11.17
2017-11-01T16:56:44.239Z,8.63
2017-11-01T16:59:11.839Z,7.70
2017-11-01T17:01:39.461Z,8.47
2017-11-01T17:04:07.855Z,6.60
2017-11-01T17:06:35.442Z,7.70
2017-11-01T17:09:03.077Z,7.87
2017-11-01T17:11:30.656Z,7.67
2017-11-01T17:13:58.260Z,8.00
2017-11-01T17:16:25.859Z,7.13
2017-11-01T17:18:53.458Z,7.40
2017-11-01T17:21:21.846Z,6.57
2017-11-01T17:23:50.199Z,6.97
2017-11-01T17:26:17.829Z,7.00
2017-11-01T17:28:46.181Z,7.30
2017-11-01T17:31:13.773Z,7.00
2017-11-01T17:33:42.162Z,7.13
2017-11-01T17:36:09.763Z,7.13
2017-11-01T17:38:37.398Z,6.77
2017-11-01T17:41:04.983Z,7.07
2017-11-01T17:43:32.577Z,6.13
2017-11-01T17:46:00.184Z,6.67
2017-11-01T17:48:28.533Z,8.53
2017-11-01T17:50:56.157Z,7.23
2017-11-01T17:53:23.749Z,5.53
2017-11-01T17:55:51.355Z,6.13
2017-11-01T17:58:18.952Z,5.90
2017-11-01T18:00:46.535Z,6.20
2017-11-01T18:03:14.162Z,5.33
2017-11-01T18:05:41.740Z,6.70
2017-11-01T18:08:09.347Z,5.90
2017-11-01T18:10:37.741Z,5.70
2017-11-01T18:13:06.102Z,5.03
2017-11-01T18:15:33.719Z,5.63
2017-11-01T18:18:01.296Z,5.70
2017-11-01T18:20:28.896Z,5.33
2017-11-01T18:22:57.264Z,5.77
2017-11-01T18:25:24.883Z,5.43
2017-11-01T18:27:52.477Z,5.80
2017-11-01T18:30:20.110Z,6.67
2017-11-01T18:32:47.680Z,6.47
2017-11-01T18:35:15.288Z,5.43
2017-11-01T18:37:42.890Z,4.63
2017-11-01T18:40:10.483Z,4.53
2017-11-01T18:42:38.098Z,4.77
2017-11-01T18:45:05.691Z,4.83
2017-11-01T18:47:33.307Z,5.20
2017-11-01T18:50:01.703Z,5.40
2017-11-01T18:52:30.067Z,6.30
2017-11-01T18:54:58.475Z,5.20
2017-11-01T18:57:26.070Z,5.43
2017-11-01T18:59:53.657Z,5.50
2017-11-01T19:02:21.258Z,6.33
2017-11-01T19:04:48.836Z,5.47
2017-11-01T19:07:16.452Z,5.67
2017-11-01T19:09:44.050Z,6.00
2017-11-01T19:12:11.660Z,6.27
2017-11-01T19:14:39.371Z,6.60
2017-11-01T19:17:06.956Z,6.17
2017-11-01T19:19:34.579Z,5.27
2017-11-01T19:22:02.951Z,6.47
2017-11-01T19:24:30.566Z,6.10
2017-11-01T19:26:58.165Z,5.57
2017-11-01T19:29:25.793Z,6.63
2017-11-01T19:31:53.388Z,6.10
2017-11-01T19:34:20.969Z,6.03
2017-11-01T19:36:48.569Z,5.23
2017-11-01T19:39:16.151Z,5.50
2017-11-01T19:41:43.769Z,5.00
2017-11-01T19:44:12.127Z,7.73
2017-11-01T19:46:39.712Z,9.00
2017-11-01T19:49:08.097Z,9.27
2017-11-01T19:51:36.464Z,10.87
2017-11-01T19:54:04.864Z,11.47
2017-11-01T19:56:33.231Z,8.57
2017-11-01T19:59:01.602Z,11.70
2017-11-01T20:01:29.219Z,8.77
2017-11-01T20:03:56.836Z,13.60
2017-11-01T20:06:25.244Z,10.23
2017-11-01T20:08:52.848Z,11.30
2017-11-01T20:11:20.438Z,9.00
2017-11-01T20:13:48.844Z,8.47
2017-11-01T20:16:16.429Z,8.20
2017-11-01T20:18:44.040Z,9.80
2017-11-01T20:21:11.653Z,12.20
2017-11-01T20:23:39.272Z,9.03
2017-11-01T20:26:06.846Z,6.27
2017-11-01T20:28:35.229Z,7.77
2017-11-01T20:31:03.591Z,6.03
2017-11-01T20:33:31.187Z,4.63
2017-11-01T20:35:58.791Z,5.23
2017-11-01T20:38:26.376Z,4.50
2017-11-01T20:40:53.980Z,4.90
2017-11-01T20:43:21.574Z,5.83
2017-11-01T20:45:49.199Z,5.23
2017-11-01T20:48:16.794Z,4.50
2017-11-01T20:50:44.401Z,5.63
2017-11-01T20:53:12.775Z,12.48
2017-11-01T20:55:40.415Z,7.03
2017-11-01T20:58:08.016Z,4.87
2017-11-01T21:00:36.395Z,5.17
2017-11-01T21:03:04.769Z,4.60
2017-11-01T21:05:33.158Z,4.40
2017-11-01T21:08:01.536Z,3.70
2017-11-01T21:10:29.943Z,4.30
2017-11-01T21:12:57.540Z,5.27
2017-11-01T21:15:25.135Z,5.30
2017-11-01T21:17:52.733Z,4.13
2017-11-01T21:20:20.355Z,4.20
2017-11-01T21:22:47.968Z,4.40
2017-11-01T21:25:15.548Z,5.00
2017-11-01T21:27:43.136Z,3.60
2017-11-01T21:30:10.766Z,4.43
2017-11-01T21:32:38.353Z,4.63
2017-11-01T21:35:06.044Z,4.73
2017-11-01T21:37:34.479Z,4.90
2017-11-01T21:40:02.065Z,4.20
2017-11-01T21:42:29.673Z,4.67
2017-11-01T21:44:57.251Z,3.87
2017-11-01T21:47:24.868Z,4.93
2017-11-01T21:49:52.479Z,4.40
2017-11-01T21:52:20.069Z,5.40
2017-11-01T21:54:47.677Z,5.70
2017-11-01T21:57:16.037Z,5.13
2017-11-01T21:59:43.655Z,4.97
2017-11-01T22:02:11.249Z,5.93
2017-11-01T22:04:38.886Z,5.10
2017-11-01T22:07:06.477Z,5.80
2017-11-01T22:09:34.083Z,5.70
2017-11-01T22:12:01.702Z,4.83
2017-11-01T22:14:29.302Z,5.13
2017-11-01T22:16:57.690Z,3.90
2017-11-01T22:19:25.299Z,5.40
2017-11-01T22:21:52.917Z,4.67
2017-11-01T22:24:20.498Z,5.20
2017-11-01T22:26:48.104Z,5.60
2017-11-01T22:29:15.694Z,4.90
2017-11-01T22:31:44.055Z,4.73
2017-11-01T22:34:11.679Z,4.43
2017-11-01T22:36:39.303Z,5.03
2017-11-01T22:39:06.892Z,5.40
2017-11-01T22:41:34.482Z,5.10
2017-11-01T22:44:02.113Z,4.60
2017-11-01T22:46:29.720Z,4.03
2017-11-01T22:48:57.308Z,4.80
2017-11-01T22:51:25.706Z,5.87
2017-11-01T22:53:53.309Z,4.90
2017-11-01T22:56:20.894Z,4.00
2017-11-01T22:58:48.515Z,5.07
2017-11-01T23:01:16.104Z,4.13
2017-11-01T23:03:43.736Z,4.30
2017-11-01T23:06:11.328Z,5.37
2017-11-01T23:08:39.696Z,4.10
2017-11-01T23:11:07.291Z,3.97
2017-11-01T23:13:34.876Z,4.57
2017-11-01T23:16:03.275Z,4.47
2017-11-01T23:18:30.864Z,3.70
2017-11-01T23:20:58.453Z,4.90
2017-11-01T23:23:26.077Z,4.00
2017-11-01T23:25:53.663Z,3.90
2017-11-01T23:28:21.313Z,3.67
2017-11-01T23:30:48.921Z,4.13
2017-11-01T23:33:17.292Z,4.10
2017-11-01T23:35:44.925Z,4.07
2017-11-01T23:38:12.508Z,3.47
2017-11-01T23:40:40.129Z,4.60
2017-11-01T23:43:07.707Z,4.33
2017-11-01T23:45:35.311Z,4.20
2017-11-01T23:48:03.688Z,4.27
2017-11-01T23:50:31.285Z,4.80
2017-11-01T23:52:58.912Z,4.00
2017-11-01T23:55:26.518Z,4.20
2017-11-01T23:57:54.110Z,3.50
